Time;durP1;ratioP1;P1;durP2;ratioP2;P2;SDS_P1;SDS_P2;PMS_P1;PMS_P2;Temp;Humidity;BMP_temperature;BMP_pressure;BME280_temperature;BME280_humidity;BME280_pressure;Samples;Min_cycle;Max_cycle;Signal;HPM_P1;HPM_P2
2023/10/12 00:02:09;;;;;;;6.15;3.75;;;;;;;26.21;36.86;97029.50;6101975;23;20038;-26
2023/10/12 00:07:38;;;;;;;4.35;2.65;;;;;;;26.19;36.92;97034.81;6127671;23;20102;-25
2023/10/12 00:12:44;;;;;;;3.90;2.55;;;;;;;25.95;37.09;97027.91;6129258;23;20033;-25
2023/10/12 00:15:23;;;;;;;5.07;2.75;;;;;;;26.16;37.04;97027.50;6127569;23;20002;-25
2023/10/12 00:17:49;;;;;;;6.85;3.10;;;;;;;26.03;37.54;97022.56;6127930;23;19998;-25
2023/10/12 00:23:01;;;;;;;5.57;2.97;;;;;;;26.06;36.85;97019.50;6128069;23;20006;-26
2023/10/12 00:25:26;;;;;;;7.90;3.05;;;;;;;26.06;36.34;97018.75;6127631;23;20029;-25
2023/10/12 00:27:52;;;;;;;4.32;3.20;;;;;;;26.08;36.47;97021.75;6127557;23;20006;-26
2023/10/12 00:30:17;;;;;;;4.68;2.80;;;;;;;26.06;36.39;97016.72;6127440;23;20008;-26
2023/10/12 00:32:43;;;;;;;6.03;3.08;;;;;;;26.02;36.56;97013.44;6127784;23;20064;-25
2023/10/12 00:35:14;;;;;;;6.03;2.80;;;;;;;25.92;37.33;97009.50;6127723;23;20373;-25
2023/10/12 00:37:41;;;;;;;6.05;3.08;;;;;;;25.97;36.60;97003.13;6127343;23;20018;-26
2023/10/12 00:40:26;;;;;;;5.43;3.00;;;;;;;25.91;36.80;97004.44;6127602;23;20086;-26
2023/10/12 00:42:53;;;;;;;6.60;2.95;;;;;;;25.92;37.37;97000.38;6127812;23;20013;-26
2023/10/12 00:45:36;;;;;;;6.70;3.28;;;;;;;25.86;36.60;97008.75;6127604;23;20066;-25
2023/10/12 00:48:07;;;;;;;7.43;2.85;;;;;;;25.86;36.75;97003.19;6127631;23;20017;-26
2023/10/12 00:50:36;;;;;;;6.20;2.90;;;;;;;25.90;36.85;97003.69;6127671;23;20037;-26
2023/10/12 00:53:31;;;;;;;6.05;3.20;;;;;;;25.80;37.02;96999.72;6127276;23;20454;-26
2023/10/12 00:55:49;;;;;;;4.22;2.97;;;;;;;25.92;36.74;97003.16;6126505;23;20006;-26
2023/10/12 00:58:17;;;;;;;4.53;2.80;;;;;;;25.82;36.69;96991.63;6127383;23;20005;-25
2023/10/12 01:00:45;;;;;;;5.43;2.92;;;;;;;25.95;36.92;96991.03;6127345;23;20061;-25
2023/10/12 01:08:36;;;;;;;4.03;2.65;;;;;;;25.95;36.99;96988.25;6131996;23;20010;-26
2023/10/12 01:11:06;;;;;;;4.78;3.10;;;;;;;26.09;36.42;96987.88;6126975;23;20052;-26
2023/10/12 01:13:33;;;;;;;4.50;3.22;;;;;;;26.01;36.75;96981.38;6101187;23;20014;-26
2023/10/12 01:16:07;;;;;;;4.85;3.17;;;;;;;25.99;37.28;96983.91;6127177;23;20417;-25
2023/10/12 01:18:34;;;;;;;4.82;3.00;;;;;;;25.71;38.12;96980.59;6127253;23;20029;-26
2023/10/12 01:21:02;;;;;;;5.80;2.80;;;;;;;25.85;37.80;96981.47;6127399;23;20006;-26
2023/10/12 01:23:28;;;;;;;6.03;3.50;;;;;;;25.90;37.68;96978.66;6126975;23;20002;-26
2023/10/12 01:26:03;;;;;;;5.18;3.40;;;;;;;25.78;38.13;96982.78;6127168;23;20061;-25
2023/10/12 01:28:29;;;;;;;4.78;3.15;;;;;;;25.83;38.05;96986.81;6127200;23;20049;-26
2023/10/12 01:30:54;;;;;;;5.18;3.17;;;;;;;25.98;37.76;96990.72;6127210;23;20006;-26
2023/10/12 01:33:20;;;;;;;5.18;3.65;;;;;;;25.77;38.40;96984.81;6126885;23;20060;-26
2023/10/12 01:35:50;;;;;;;5.43;3.20;;;;;;;25.76;39.50;96977.00;6126810;23;20014;-26
2023/10/12 01:38:16;;;;;;;5.47;3.00;;;;;;;25.79;38.73;96975.22;6126866;23;20052;-26
2023/10/12 01:43:17;;;;;;;5.93;3.08;;;;;;;25.68;39.69;96984.38;6132376;23;20010;-25
2023/10/12 01:45:59;;;;;;;4.72;3.10;;;;;;;25.88;39.52;96984.00;6100499;23;20328;-25
2023/10/12 01:48:29;;;;;;;4.85;3.03;;;;;;;25.74;39.79;96971.19;6127098;23;20033;-26
2023/10/12 01:50:55;;;;;;;5.82;3.15;;;;;;;25.84;39.99;96972.38;6127299;23;20002;-26
2023/10/12 01:55:47;;;;;;;4.15;3.08;;;;;;;25.81;40.14;96965.09;6127156;23;20012;-25
2023/10/12 01:58:15;;;;;;;6.20;3.10;;;;;;;25.89;39.76;96968.81;6126913;23;20006;-25
2023/10/12 02:00:48;;;;;;;6.57;3.67;;;;;;;25.72;40.49;96968.16;6126449;23;20009;-26
2023/10/12 02:03:20;;;;;;;6.78;3.20;;;;;;;25.81;40.55;96965.09;6100924;23;20328;-26
2023/10/12 02:05:58;;;;;;;5.57;3.60;;;;;;;25.94;40.07;96972.84;6126040;23;20451;-25
2023/10/12 02:08:32;;;;;;;3.72;3.00;;;;;;;25.82;40.57;96963.84;6126604;23;20006;-26
2023/10/12 02:11:10;;;;;;;4.80;2.90;;;;;;;25.93;40.89;96969.31;6126446;23;20002;-26
2023/10/12 02:13:35;;;;;;;4.97;3.60;;;;;;;25.58;41.27;96966.47;6126738;23;20010;-25
2023/10/12 02:16:05;;;;;;;6.05;3.42;;;;;;;25.82;40.91;96961.06;6126596;23;20073;-26
2023/10/12 02:18:31;;;;;;;6.13;3.58;;;;;;;25.86;40.28;96967.06;6126581;23;20005;-26
2023/10/12 02:21:08;;;;;;;7.15;3.30;;;;;;;25.71;40.94;96958.34;6126595;23;20049;-26
2023/10/12 02:23:38;;;;;;;8.15;3.80;;;;;;;25.87;40.65;96965.81;6126673;23;20009;-26
2023/10/12 02:26:12;;;;;;;6.15;3.05;;;;;;;25.82;40.63;96963.84;6126567;23;20463;-26
2023/10/12 02:28:40;;;;;;;5.75;3.58;;;;;;;25.65;40.16;96974.28;6126802;23;20006;-25
2023/10/12 02:31:05;;;;;;;6.72;3.30;;;;;;;25.68;40.19;96967.72;6126632;23;20008;-25
2023/10/12 02:33:36;;;;;;;7.95;3.78;;;;;;;25.80;39.53;96963.59;6126220;23;20076;-26
2023/10/12 02:36:06;;;;;;;5.63;3.30;;;;;;;25.70;40.20;96967.97;6126115;23;20018;-25
2023/10/12 02:38:34;;;;;;;4.88;3.35;;;;;;;25.92;39.41;96956.69;6126551;23;20061;-26
2023/10/12 02:40:59;;;;;;;6.35;3.17;;;;;;;25.66;39.72;96961.91;6126289;23;20379;-26
2023/10/12 02:43:28;;;;;;;7.30;3.42;;;;;;;25.67;39.28;96957.88;6126424;23;20019;-26
2023/10/12 02:45:59;;;;;;;5.25;3.13;;;;;;;25.57;39.44;96960.19;6126401;23;20377;-25
2023/10/12 02:48:25;;;;;;;4.78;3.28;;;;;;;25.61;39.13;96963.44;6126550;23;20002;-26
2023/10/12 02:51:06;;;;;;;7.10;3.55;;;;;;;25.66;38.90;96962.66;6126141;23;20104;-26
2023/10/12 02:53:34;;;;;;;4.50;2.90;;;;;;;25.66;38.25;96968.22;6126433;23;20425;-26
2023/10/12 02:56:01;;;;;;;5.25;3.20;;;;;;;25.61;38.81;96965.47;6125960;23;20346;-26
2023/10/12 02:58:30;;;;;;;5.88;3.20;;;;;;;25.65;37.74;96971.50;6126245;23;20052;-25
2023/10/12 03:01:12;;;;;;;5.45;3.10;;;;;;;25.55;38.02;96968.25;6126103;23;20002;-26
2023/10/12 03:03:39;;;;;;;5.70;3.22;;;;;;;25.61;37.42;96969.00;6126393;23;20061;-26
2023/10/12 03:06:08;;;;;;;5.22;3.03;;;;;;;25.80;37.81;96973.94;6126050;23;20016;-25
2023/10/12 03:08:46;;;;;;;4.95;3.00;;;;;;;25.63;37.00;96968.50;6126334;23;20302;-25
2023/10/12 03:11:19;;;;;;;5.00;2.47;;;;;;;25.74;36.19;96973.97;6125951;23;20012;-25
2023/10/12 03:14:01;;;;;;;5.57;2.40;;;;;;;25.69;36.51;96972.00;6126286;23;20397;-26
2023/10/12 03:16:34;;;;;;;4.75;2.88;;;;;;;25.71;35.92;96969.47;6126044;23;20002;-25
2023/10/12 03:19:06;;;;;;;5.07;2.60;;;;;;;25.71;35.57;96970.22;6126169;23;20056;-25
2023/10/12 03:21:33;;;;;;;4.40;2.33;;;;;;;25.61;35.71;96971.78;6126298;23;20006;-26
2023/10/12 03:24:02;;;;;;;4.93;2.58;;;;;;;25.56;35.24;96969.00;6126055;23;20001;-26
2023/10/12 03:26:27;;;;;;;4.35;2.47;;;;;;;25.67;35.05;96974.53;6125802;23;20012;-25
2023/10/12 03:28:59;;;;;;;5.75;2.53;;;;;;;25.65;34.62;96974.28;6126014;23;20005;-25
2023/10/12 03:31:26;;;;;;;4.57;2.70;;;;;;;25.65;34.96;96969.50;6125833;23;20442;-25
2023/10/12 03:33:56;;;;;;;4.40;2.30;;;;;;;25.66;34.34;96970.25;6126129;23;20002;-25
2023/10/12 03:36:25;;;;;;;5.90;2.38;;;;;;;25.64;33.95;96970.00;6125475;23;20014;-25
2023/10/12 03:52:28;;;;;;;5.28;2.53;;;;;;;25.39;35.28;96980.22;6128670;23;20013;-26
2023/10/12 03:57:36;;;;;;;5.88;3.05;;;;;;;25.67;35.80;96972.50;6128170;23;20041;-26
2023/10/12 04:02:42;;;;;;;6.60;3.20;;;;;;;25.65;35.88;96977.81;6126149;23;20314;-25
2023/10/12 04:18:32;;;;;;;6.95;3.45;;;;;;;25.46;36.16;96970.59;6130830;23;20092;-25
2023/10/12 04:20:58;;;;;;;5.20;3.33;;;;;;;25.47;35.73;96966.56;6125786;23;20373;-25
2023/10/12 04:28:50;;;;;;;4.63;2.90;;;;;;;25.64;35.58;96970.00;6131196;23;20085;-25
2023/10/12 04:39:18;;;;;;;8.63;3.20;;;;;;;25.41;35.38;96964.53;6129537;23;20182;-26
2023/10/12 04:46:59;;;;;;;5.25;3.35;;;;;;;25.32;36.03;96964.09;6132325;23;20043;-25
2023/10/12 04:54:49;;;;;;;5.45;3.10;;;;;;;25.23;35.58;96969.91;6127730;23;20012;-26
2023/10/12 04:57:16;;;;;;;5.53;2.67;;;;;;;25.27;35.43;96971.19;6127285;23;20029;-25
2023/10/12 05:09:37;;;;;;;5.07;2.70;;;;;;;25.32;35.27;96973.19;6127520;23;20089;-25
2023/10/12 05:12:03;;;;;;;5.18;2.60;;;;;;;25.23;35.03;96970.69;6127121;23;20006;-26
2023/10/12 05:14:30;;;;;;;6.18;2.80;;;;;;;25.19;35.58;96967.44;6127048;23;20013;-26
2023/10/12 05:16:55;;;;;;;4.45;2.78;;;;;;;25.17;35.71;96983.09;6127271;23;20004;-25
2023/10/12 05:19:21;;;;;;;6.40;3.00;;;;;;;25.29;35.37;96974.19;6127028;23;20038;-25
2023/10/12 05:21:46;;;;;;;6.53;2.67;;;;;;;25.32;35.74;96978.72;6127519;23;20006;-25
2023/10/12 05:24:12;;;;;;;4.40;2.47;;;;;;;25.13;35.80;96983.34;6126889;23;20006;-25
2023/10/12 05:26:37;;;;;;;5.25;2.42;;;;;;;25.38;35.02;96976.66;6127105;23;20053;-25
2023/10/12 05:32:06;;;;;;;6.53;2.90;;;;;;;25.29;35.57;96982.53;6127572;23;20013;-25
2023/10/12 05:37:17;;;;;;;3.78;2.50;;;;;;;25.42;35.71;96982.72;6126885;23;20046;-25
2023/10/12 05:39:51;;;;;;;6.57;2.55;;;;;;;25.24;35.81;96994.41;6126772;23;20077;-25
2023/10/12 05:42:25;;;;;;;5.25;2.53;;;;;;;25.21;35.58;96989.13;6127061;23;20094;-25
2023/10/12 05:44:52;;;;;;;6.40;2.78;;;;;;;25.26;35.43;96991.13;6127061;23;20010;-26
2023/10/12 05:47:28;;;;;;;8.10;2.35;;;;;;;25.22;35.40;96996.94;6126885;23;20070;-25
2023/10/12 05:49:54;;;;;;;6.53;2.65;;;;;;;25.29;35.40;96987.31;6126750;23;20002;-25
2023/10/12 05:52:20;;;;;;;4.45;2.45;;;;;;;25.28;35.39;96992.13;6126694;23;20060;-25
2023/10/12 05:54:45;;;;;;;4.50;2.97;;;;;;;25.06;36.04;96997.75;6126812;23;20006;-26
2023/10/12 05:57:20;;;;;;;5.20;3.08;;;;;;;25.29;35.83;97004.72;6127156;23;20029;-25
2023/10/12 05:59:46;;;;;;;7.88;3.13;;;;;;;25.30;35.92;96997.91;6126610;23;20054;-25
2023/10/12 06:02:13;;;;;;;6.15;2.80;;;;;;;25.17;36.15;96994.19;6126693;23;20001;-25
2023/10/12 06:04:39;;;;;;;7.88;3.30;;;;;;;25.41;35.85;96995.09;6126626;23;20289;-25
2023/10/12 06:07:05;;;;;;;5.40;2.90;;;;;;;25.37;36.03;97002.16;6126521;23;20081;-25
2023/10/12 06:09:37;;;;;;;5.78;3.03;;;;;;;25.36;35.88;97011.75;6126709;23;20088;-25
2023/10/12 06:12:07;;;;;;;5.47;3.10;;;;;;;25.32;36.34;96997.41;6126512;23;20016;-25
2023/10/12 06:14:34;;;;;;;5.80;3.03;;;;;;;25.37;36.19;97004.94;6100656;23;20005;-25
2023/10/12 06:17:02;;;;;;;4.88;2.70;;;;;;;25.49;35.85;97003.63;6126637;23;20006;-26
2023/10/12 06:19:31;;;;;;;6.90;2.83;;;;;;;25.31;36.04;97007.00;6126382;23;20018;-26
2023/10/12 06:21:59;;;;;;;5.38;2.95;;;;;;;25.35;36.14;97011.00;6126663;23;20424;-25
2023/10/12 06:24:33;;;;;;;4.07;3.00;;;;;;;25.38;36.28;97012.00;6126366;23;20009;-25
2023/10/12 06:27:22;;;;;;;5.82;2.72;;;;;;;25.40;36.24;97007.47;6126675;23;20009;-26
2023/10/12 06:29:52;;;;;;;5.55;3.45;;;;;;;25.37;35.97;97014.03;6126929;23;20009;-25
2023/10/12 06:32:19;;;;;;;4.80;2.33;;;;;;;25.52;35.63;97016.50;6126438;23;20002;-25
2023/10/12 06:34:46;;;;;;;4.65;3.00;;;;;;;25.48;35.63;97023.56;6126571;23;20009;-25
2023/10/12 06:37:49;;;;;;;5.63;2.83;;;;;;;25.36;36.13;97026.41;6126428;23;20018;-25
2023/10/12 06:42:44;;;;;;;6.45;2.50;;;;;;;25.26;36.06;97030.72;6126484;23;20340;-25
2023/10/12 06:45:15;;;;;;;4.13;2.20;;;;;;;25.31;35.79;97032.75;6126648;23;20013;-25
2023/10/12 06:47:44;;;;;;;4.70;2.58;;;;;;;25.43;35.54;97041.78;6126030;23;20002;-25
2023/10/12 06:50:16;;;;;;;4.25;2.50;;;;;;;25.38;36.02;97037.75;6126326;23;20002;-25
2023/10/12 06:52:43;;;;;;;5.13;2.78;;;;;;;25.40;35.56;97040.78;6126214;23;20009;-25
2023/10/12 06:55:09;;;;;;;4.82;2.60;;;;;;;25.14;35.99;97040.38;6126383;23;20029;-25
2023/10/12 06:57:43;;;;;;;5.47;2.53;;;;;;;25.25;36.27;97045.88;6126572;23;20597;-25
2023/10/12 07:02:35;;;;;;;5.85;2.15;;;;;;;25.38;36.05;97057.19;6126676;23;20092;-25
2023/10/12 07:05:04;;;;;;;5.65;2.47;;;;;;;25.55;35.92;97050.81;6125957;23;20080;-26
2023/10/12 07:07:36;;;;;;;6.72;2.70;;;;;;;25.55;35.59;97053.59;6126260;23;20006;-25
2023/10/12 07:12:45;;;;;;;3.75;2.30;;;;;;;25.48;36.28;97068.00;6128359;23;20017;-25
2023/10/12 07:15:19;;;;;;;6.13;2.33;;;;;;;25.57;36.15;97070.50;6125860;23;20428;-25
2023/10/12 07:17:49;;;;;;;6.78;3.30;;;;;;;25.56;36.59;97069.75;6126197;23;19998;-25
2023/10/12 07:20:40;;;;;;;7.72;2.80;;;;;;;25.52;36.53;97072.03;6125909;23;20026;-25
2023/10/12 07:23:16;;;;;;;6.18;2.90;;;;;;;25.51;36.42;97073.31;6125626;23;20032;-25
2023/10/12 07:25:50;;;;;;;5.25;2.63;;;;;;;25.63;36.12;97074.03;6126007;23;20002;-25
2023/10/12 07:28:39;;;;;;;4.07;2.40;;;;;;;25.62;36.20;97080.84;6125896;23;20002;-25
2023/10/12 07:33:59;;;;;;;4.18;2.00;;;;;;;25.64;35.58;97086.66;6130311;23;20017;-25
2023/10/12 07:41:41;;;;;;;3.85;2.70;;;;;;;25.64;35.61;97097.78;6131487;23;20430;-25
2023/10/12 07:44:07;;;;;;;4.43;2.10;;;;;;;25.67;35.95;97093.97;6126043;23;20323;-25
2023/10/12 07:46:35;;;;;;;6.25;3.03;;;;;;;25.37;36.42;97102.13;6125783;23;20081;-25
2023/10/12 07:49:22;;;;;;;3.83;2.60;;;;;;;25.52;36.45;97096.28;6125830;23;20071;-26
2023/10/12 07:54:46;;;;;;;5.40;2.90;;;;;;;25.75;36.15;97103.28;6126030;23;20369;-25
2023/10/12 07:57:15;;;;;;;4.63;2.90;;;;;;;25.75;36.68;97101.25;6125945;23;20006;-26
2023/10/12 07:59:58;;;;;;;6.63;3.65;;;;;;;25.80;35.89;97099.72;6126115;23;20012;-26
2023/10/12 08:03:05;;;;;;;;;;;;;;;25.49;36.64;97100.81;6126652;23;20060;-25
2023/10/12 08:23:38;;;;;;;16.85;3.70;;;;;;;26.02;36.36;97112.75;6132299;23;20420;-25
2023/10/12 08:26:04;;;;;;;5.55;2.80;;;;;;;25.96;35.48;97112.03;6127655;23;20009;-25
2023/10/12 08:28:37;;;;;;;7.95;2.90;;;;;;;26.04;35.14;97110.97;6127478;23;20013;-25
2023/10/12 08:31:14;;;;;;;6.25;3.30;;;;;;;26.01;35.93;97108.47;6127739;23;20005;-25
2023/10/12 08:33:49;;;;;;;6.00;2.85;;;;;;;25.96;35.68;97106.50;6128146;23;20065;-25
2023/10/12 08:38:40;;;;;;;4.65;2.80;;;;;;;26.15;35.39;97101.06;6128098;23;20010;-25
2023/10/12 08:41:29;;;;;;;6.75;2.97;;;;;;;26.30;35.14;97107.06;6127820;23;20018;-25
2023/10/12 08:44:00;;;;;;;6.03;2.45;;;;;;;26.25;35.06;97105.78;6127964;23;20002;-25
2023/10/12 08:46:50;;;;;;;7.00;2.40;;;;;;;26.19;34.99;97104.34;6127463;23;20080;-25
2023/10/12 08:49:34;;;;;;;4.93;2.65;;;;;;;26.20;35.39;97109.38;6127420;23;20072;-25
2023/10/12 08:52:06;;;;;;;6.38;3.00;;;;;;;26.28;35.58;97104.81;6127763;23;20002;-25
2023/10/12 08:54:37;;;;;;;5.40;2.22;;;;;;;26.37;35.45;97098.91;6127570;23;20444;-25
2023/10/12 08:57:12;;;;;;;4.85;2.40;;;;;;;26.45;35.00;97101.91;6127500;23;20038;-25
2023/10/12 08:59:42;;;;;;;6.20;2.10;;;;;;;26.41;34.93;97102.19;6127207;23;20005;-25
2023/10/12 09:02:23;;;;;;;8.02;2.85;;;;;;;26.36;35.36;97102.22;6127497;23;20396;-25
2023/10/12 09:04:49;;;;;;;4.97;2.75;;;;;;;26.35;35.67;97103.47;6127399;23;20010;-25
2023/10/12 09:07:21;;;;;;;6.78;3.47;;;;;;;26.39;35.51;97103.97;6127162;23;20033;-25
2023/10/12 09:09:55;;;;;;;4.72;2.85;;;;;;;26.46;36.05;97104.16;6127457;23;20425;-25
2023/10/12 09:12:21;;;;;;;7.38;2.80;;;;;;;26.46;35.86;97097.84;6127387;23;20057;-25
2023/10/12 09:14:47;;;;;;;6.60;2.70;;;;;;;26.37;35.94;97106.50;6127301;23;20361;-25
2023/10/12 09:17:30;;;;;;;6.63;2.58;;;;;;;26.39;35.28;97101.19;6127083;23;20124;-25
2023/10/12 09:20:26;;;;;;;5.07;3.20;;;;;;;26.51;34.68;97097.06;6127459;23;20416;-25
2023/10/12 09:22:46;;;;;;;5.75;2.45;;;;;;;26.56;34.66;97103.84;6127001;23;20006;-25
2023/10/12 09:25:26;;;;;;;8.68;2.47;;;;;;;26.47;34.64;97105.66;6127165;23;20416;-25
2023/10/12 09:27:55;;;;;;;6.85;2.72;;;;;;;26.48;35.13;97098.84;6127185;23;20017;-25
2023/10/12 09:30:25;;;;;;;9.15;3.05;;;;;;;26.53;35.36;97104.88;6100803;23;20010;-25
2023/10/12 09:33:06;;;;;;;7.00;2.90;;;;;;;26.53;34.69;97090.97;6126908;23;20073;-25
2023/10/12 09:35:40;;;;;;;4.78;2.53;;;;;;;26.60;34.81;97102.28;6126707;23;20451;-25
2023/10/12 09:38:05;;;;;;;4.05;2.70;;;;;;;26.58;34.73;97093.69;6127251;23;20002;-25
2023/10/12 09:40:42;;;;;;;5.25;2.30;;;;;;;26.58;34.01;97106.88;6127220;23;20036;-25
2023/10/12 09:43:17;;;;;;;5.10;2.40;;;;;;;26.59;33.70;97098.00;6127255;23;20080;-25
2023/10/12 09:45:45;;;;;;;6.65;1.98;;;;;;;26.54;33.90;97107.16;6126753;23;20009;-25
2023/10/12 09:48:19;;;;;;;5.30;3.05;;;;;;;26.50;33.65;97100.34;6127197;23;20008;-25
2023/10/12 09:50:48;;;;;;;4.35;2.40;;;;;;;26.60;34.27;97098.75;6126771;23;20365;-25
2023/10/12 09:53:26;;;;;;;5.78;2.35;;;;;;;26.79;34.18;97099.63;6126770;23;20488;-25
2023/10/12 09:56:10;;;;;;;4.70;2.75;;;;;;;26.56;33.68;97096.28;6126757;23;20010;-25
2023/10/12 09:58:45;;;;;;;8.25;2.50;;;;;;;26.66;33.54;97103.00;6126933;23;20002;-25
2023/10/12 10:01:25;;;;;;;6.43;2.72;;;;;;;26.52;33.30;97095.78;6126973;23;20328;-25
2023/10/12 10:03:52;;;;;;;4.05;2.53;;;;;;;26.77;33.72;97100.13;6126724;23;20417;-25
2023/10/12 10:06:36;;;;;;;8.13;2.83;;;;;;;26.69;32.56;97088.06;6126716;23;20006;-25
2023/10/12 10:09:17;;;;;;;6.72;3.00;;;;;;;26.82;33.13;97099.34;6126640;23;20006;-25
2023/10/12 10:11:45;;;;;;;6.35;2.45;;;;;;;26.87;32.76;97094.22;6126980;23;20006;-25
2023/10/12 10:14:17;;;;;;;9.98;2.70;;;;;;;26.83;33.14;97088.94;6126639;23;20002;-25
2023/10/12 10:16:46;;;;;;;6.72;2.50;;;;;;;26.75;32.95;97096.34;6126606;23;20002;-25
2023/10/12 10:19:16;;;;;;;6.88;2.88;;;;;;;26.75;32.53;97105.47;6126445;23;20032;-25
2023/10/12 10:22:04;;;;;;;9.45;2.70;;;;;;;26.75;32.76;97094.31;6126852;23;20321;-25
2023/10/12 10:24:46;;;;;;;7.57;2.55;;;;;;;26.84;32.52;97085.63;6126833;23;20097;-25
2023/10/12 10:27:15;;;;;;;5.47;2.85;;;;;;;26.72;32.76;97091.81;6126255;23;20010;-25
2023/10/12 10:29:45;;;;;;;5.53;2.38;;;;;;;26.79;33.08;97083.69;6126454;23;20328;-25
2023/10/12 10:32:14;;;;;;;6.88;2.72;;;;;;;26.75;32.74;97090.78;6126507;23;20002;-25
2023/10/12 10:34:41;;;;;;;7.07;3.10;;;;;;;26.86;32.86;97092.72;6126717;23;20328;-25
2023/10/12 10:37:11;;;;;;;6.22;2.90;;;;;;;26.75;32.48;97080.41;6126420;23;20428;-25
2023/10/12 10:39:38;;;;;;;6.05;2.80;;;;;;;26.84;32.55;97088.41;6126587;23;20010;-25
2023/10/12 10:42:08;;;;;;;6.38;2.83;;;;;;;26.95;32.96;97086.88;6126743;23;20009;-25
2023/10/12 10:44:42;;;;;;;4.80;2.80;;;;;;;26.75;32.74;97088.75;6126080;23;20076;-25
2023/10/12 10:47:10;;;;;;;8.45;2.80;;;;;;;26.81;32.94;97080.38;6126402;23;20013;-25
2023/10/12 10:49:35;;;;;;;6.28;3.22;;;;;;;26.79;32.61;97074.56;6126210;23;20002;-25
2023/10/12 10:54:39;;;;;;;5.70;2.70;;;;;;;26.91;32.67;97070.41;6127258;23;20006;-25
2023/10/12 10:57:16;;;;;;;5.38;2.42;;;;;;;26.89;32.99;97064.59;6126367;23;20409;-25
2023/10/12 10:59:43;;;;;;;5.90;2.65;;;;;;;26.93;32.77;97058.78;6126276;23;20006;-25
2023/10/12 11:02:12;;;;;;;4.72;2.13;;;;;;;26.80;32.56;97054.56;6100220;23;20421;-25
2023/10/12 11:07:04;;;;;;;4.88;2.50;;;;;;;26.90;33.06;97045.88;6126447;23;20001;-25
2023/10/12 11:12:31;;;;;;;4.97;2.70;;;;;;;26.93;32.81;97036.53;6128992;23;20423;-25
2023/10/12 11:15:19;;;;;;;6.00;2.30;;;;;;;26.95;33.32;97031.94;6126224;23;20002;-25
2023/10/12 11:17:57;;;;;;;4.57;2.47;;;;;;;26.90;32.33;97034.75;6126192;23;19998;-25
2023/10/12 11:20:27;;;;;;;5.32;2.70;;;;;;;26.93;31.85;97017.78;6125830;23;20017;-25
2023/10/12 11:22:54;;;;;;;4.40;2.30;;;;;;;26.96;31.54;97013.19;6126252;23;20016;-25
2023/10/12 11:25:20;;;;;;;4.43;2.00;;;;;;;26.84;31.34;97012.53;6125797;23;20059;-25
2023/10/12 11:27:45;;;;;;;6.50;2.30;;;;;;;26.83;31.67;97008.22;6126030;23;20006;-25
2023/10/12 11:30:18;;;;;;;5.22;2.55;;;;;;;27.05;31.25;97001.72;6100354;23;20089;-25
2023/10/12 11:32:55;;;;;;;4.75;2.45;;;;;;;27.08;32.38;97000.66;6126450;23;20002;-25
2023/10/12 11:35:40;;;;;;;7.10;2.25;;;;;;;27.01;31.26;96999.22;6126021;23;20001;-25
2023/10/12 11:38:20;;;;;;;4.38;2.20;;;;;;;26.96;30.81;96994.47;6126149;23;20048;-25
2023/10/12 11:40:52;;;;;;;5.72;2.40;;;;;;;27.00;31.19;96999.75;6126010;23;20028;-25
2023/10/12 11:43:21;;;;;;;5.97;2.30;;;;;;;27.10;30.84;96995.31;6126323;23;20478;-25
2023/10/12 11:46:01;;;;;;;5.63;2.05;;;;;;;27.00;29.97;96991.41;6125809;23;20006;-25
2023/10/12 11:48:27;;;;;;;9.23;1.98;;;;;;;27.04;30.54;96989.09;6125927;23;20429;-25
2023/10/12 11:50:54;;;;;;;3.22;2.20;;;;;;;26.88;30.55;96984.41;6125585;23;20006;-25
2023/10/12 11:53:20;;;;;;;4.22;2.50;;;;;;;27.10;30.98;96989.75;6126204;23;20130;-25
2023/10/12 11:55:48;;;;;;;5.53;1.98;;;;;;;27.06;30.95;96981.72;6125870;23;20024;-25
2023/10/12 11:58:18;;;;;;;5.55;2.40;;;;;;;26.94;31.29;96974.00;6126127;23;20030;-25
2023/10/12 12:00:50;;;;;;;7.78;2.78;;;;;;;26.93;31.44;96972.50;6125731;23;20028;-25
2023/10/12 12:03:16;;;;;;;8.63;3.17;;;;;;;26.95;30.72;96965.16;6126051;23;20009;-25
2023/10/12 12:05:50;;;;;;;6.18;2.65;;;;;;;26.91;31.42;96963.91;6126120;23;20001;-25
2023/10/12 12:08:18;;;;;;;9.18;2.30;;;;;;;27.05;30.87;96969.06;6125722;23;20006;-25
2023/10/12 12:10:45;;;;;;;9.10;2.38;;;;;;;26.98;31.47;96968.88;6099887;23;20009;-25
2023/10/12 12:13:12;;;;;;;9.30;2.53;;;;;;;26.98;31.00;96963.31;6125736;23;20006;-25
2023/10/12 12:15:46;;;;;;;5.93;2.30;;;;;;;26.89;30.98;96972.75;6125992;23;20009;-25
2023/10/12 12:18:19;;;;;;;9.30;2.85;;;;;;;26.95;31.04;96961.59;6125789;23;20009;-25
2023/10/12 12:20:50;;;;;;;6.30;2.50;;;;;;;26.91;31.30;96961.09;6125896;23;20536;-25
2023/10/12 12:23:17;;;;;;;7.32;2.80;;;;;;;26.90;30.83;96959.59;6125927;23;20006;-25
2023/10/12 12:25:44;;;;;;;3.80;2.22;;;;;;;26.95;31.41;96959.59;6125919;23;20428;-25
2023/10/12 12:28:21;;;;;;;6.20;2.30;;;;;;;26.98;30.88;96958.50;6126359;23;20002;-25
2023/10/12 12:30:51;;;;;;;6.60;2.30;;;;;;;27.02;30.94;96961.00;6125920;23;20002;-25
2023/10/12 12:33:19;;;;;;;8.93;2.60;;;;;;;26.99;30.94;96953.69;6125750;23;20322;-25
2023/10/12 12:35:46;;;;;;;9.35;2.72;;;;;;;26.96;31.69;96957.53;6125735;23;20046;-25
2023/10/12 12:38:28;;;;;;;4.32;2.55;;;;;;;26.88;30.88;96953.81;6125862;23;20439;-25
2023/10/12 12:40:54;;;;;;;4.85;2.20;;;;;;;26.97;31.10;96959.03;6125990;23;20014;-25
2023/10/12 12:43:20;;;;;;;6.88;2.50;;;;;;;27.08;30.87;96967.25;6125633;23;20442;-25
2023/10/12 12:45:46;;;;;;;5.72;2.80;;;;;;;27.01;30.42;96956.72;6125520;23;20085;-25
2023/10/12 12:48:11;;;;;;;6.65;2.33;;;;;;;27.08;30.50;96956.13;6125970;23;20041;-25
2023/10/12 12:50:37;;;;;;;4.47;2.60;;;;;;;27.00;30.69;96955.22;6127291;23;20013;-25
2023/10/12 12:53:06;;;;;;;5.63;2.53;;;;;;;27.06;31.11;96958.69;6127379;23;20006;-25
2023/10/12 12:55:38;;;;;;;7.05;2.55;;;;;;;27.08;31.05;96956.13;6127574;23;20001;-25
2023/10/12 12:58:04;;;;;;;8.07;2.43;;;;;;;27.08;30.47;96953.34;6127424;23;20074;-25
2023/10/12 13:00:33;;;;;;;8.02;2.28;;;;;;;27.17;30.93;96948.16;6127497;23;20025;-25
2023/10/12 13:03:00;;;;;;;7.70;2.78;;;;;;;27.03;30.60;96951.38;6127059;23;20436;-25
2023/10/12 13:05:28;;;;;;;9.35;2.25;;;;;;;27.00;31.23;96944.06;6127370;23;20124;-25
2023/10/12 13:07:54;;;;;;;5.38;2.60;;;;;;;27.14;30.73;96948.47;6127269;23;20006;-25
2023/10/12 13:10:21;;;;;;;4.78;2.33;;;;;;;27.09;30.85;96952.81;6127295;23;20041;-25
2023/10/12 13:12:47;;;;;;;6.75;2.60;;;;;;;27.02;30.88;96949.88;6127383;23;20032;-25
2023/10/12 13:15:14;;;;;;;9.80;2.97;;;;;;;26.94;30.78;96940.63;6127106;23;20033;-25
2023/10/12 13:17:40;;;;;;;6.75;2.70;;;;;;;26.93;30.73;96939.88;6127130;23;20443;-25
2023/10/12 13:20:18;;;;;;;10.48;3.17;;;;;;;26.96;31.17;96940.81;6127213;23;20002;-25
2023/10/12 13:22:44;;;;;;;9.02;3.00;;;;;;;27.04;30.67;96942.50;6127170;23;20086;-25
2023/10/12 13:25:10;;;;;;;7.10;4.32;;;;;;;27.15;30.74;96944.41;6127281;23;20336;-25
2023/10/12 13:27:37;;;;;;;15.43;8.18;;;;;;;27.20;30.54;96940.78;6126922;23;20080;-25
2023/10/12 13:30:09;;;;;;;8.50;5.00;;;;;;;27.11;30.54;96930.78;6127036;23;20009;-25
2023/10/12 13:32:38;;;;;;;12.23;5.80;;;;;;;27.24;30.91;96927.31;6126750;23;20014;-25
2023/10/12 13:35:17;;;;;;;21.52;9.60;;;;;;;27.09;30.82;96935.34;6127137;23;20052;-25
2023/10/12 13:37:44;;;;;;;21.65;10.98;;;;;;;27.14;30.67;96942.88;6126751;23;20459;-25
2023/10/12 13:40:15;;;;;;;13.70;5.63;;;;;;;27.10;30.83;96937.63;6126986;23;20065;-25
2023/10/12 13:42:42;;;;;;;12.85;5.90;;;;;;;27.10;29.76;96926.47;6127065;23;20100;-25
2023/10/12 13:45:12;;;;;;;16.52;7.07;;;;;;;27.06;30.50;96930.84;6126947;23;20541;-25
2023/10/12 13:47:40;;;;;;;17.90;8.98;;;;;;;27.17;30.60;96930.72;6126842;23;20357;-25
2023/10/12 13:50:10;;;;;;;12.23;5.78;;;;;;;27.09;30.89;96924.97;6127129;23;20006;-25
2023/10/12 13:52:37;;;;;;;9.20;5.07;;;;;;;27.10;30.64;96931.28;6126620;23;20466;-25
2023/10/12 13:55:11;;;;;;;8.38;4.20;;;;;;;27.19;30.61;96928.16;6100835;23;20317;-25
2023/10/12 13:57:50;;;;;;;7.57;4.05;;;;;;;27.16;30.04;96921.59;6100844;23;19998;-25
2023/10/12 14:00:25;;;;;;;8.25;3.65;;;;;;;27.13;30.63;96922.66;6100332;23;20309;-25
2023/10/12 14:02:56;;;;;;;9.80;3.90;;;;;;;27.08;30.64;96914.34;6126578;23;20010;-25
2023/10/12 14:05:28;;;;;;;9.80;3.28;;;;;;;27.22;30.30;96910.38;6126944;23;20006;-25
2023/10/12 14:08:01;;;;;;;8.35;3.55;;;;;;;27.11;30.18;96911.28;6126383;23;20491;-25
2023/10/12 14:10:27;;;;;;;11.77;2.85;;;;;;;27.23;30.20;96925.81;6127239;23;20375;-25